sensor_id;sensor_type;location;lat;lon;timestamp;temperature;humidity
27224;DHT22;14965;50.660;13.226;2023-07-13T00:00:39;17.90;99.90
27224;DHT22;14965;50.660;13.226;2023-07-13T00:03:06;17.60;99.90
27224;DHT22;14965;50.660;13.226;2023-07-13T00:05:32;17.40;99.90
27224;DHT22;14965;50.660;13.226;2023-07-13T00:07:58;17.30;99.90
27224;DHT22;14965;50.660;13.226;2023-07-13T00:10:24;17.30;99.90
27224;DHT22;14965;50.660;13.226;2023-07-13T00:12:50;17.20;99.90
27224;DHT22;14965;50.660;13.226;2023-07-13T00:15:18;17.00;99.90
27224;DHT22;14965;50.660;13.226;2023-07-13T00:17:46;16.90;99.90
27224;DHT22;14965;50.660;13.226;2023-07-13T00:20:13;16.90;99.90
27224;DHT22;14965;50.660;13.226;2023-07-13T00:22:39;17.00;99.90
27224;DHT22;14965;50.660;13.226;2023-07-13T00:25:05;17.00;99.90
27224;DHT22;14965;50.660;13.226;2023-07-13T00:27:32;17.00;99.90
27224;DHT22;14965;50.660;13.226;2023-07-13T00:29:58;17.00;99.90
27224;DHT22;14965;50.660;13.226;2023-07-13T00:32:24;16.90;99.90
27224;DHT22;14965;50.660;13.226;2023-07-13T00:34:50;16.90;99.90
27224;DHT22;14965;50.660;13.226;2023-07-13T00:37:17;16.80;99.90
27224;DHT22;14965;50.660;13.226;2023-07-13T00:39:44;16.80;99.90
27224;DHT22;14965;50.660;13.226;2023-07-13T00:42:09;16.70;99.90
27224;DHT22;14965;50.660;13.226;2023-07-13T00:44:35;16.60;99.90
27224;DHT22;14965;50.660;13.226;2023-07-13T00:47:01;16.60;99.90
27224;DHT22;14965;50.660;13.226;2023-07-13T00:49:29;16.50;99.90
27224;DHT22;14965;50.660;13.226;2023-07-13T00:51:59;16.50;99.90
27224;DHT22;14965;50.660;13.226;2023-07-13T00:54:32;16.50;99.90
27224;DHT22;14965;50.660;13.226;2023-07-13T00:57:04;16.50;99.90
27224;DHT22;14965;50.660;13.226;2023-07-13T00:59:34;16.50;99.90
27224;DHT22;14965;50.660;13.226;2023-07-13T01:02:01;16.30;99.90
27224;DHT22;14965;50.660;13.226;2023-07-13T01:04:28;16.30;99.90
27224;DHT22;14965;50.660;13.226;2023-07-13T01:06:54;16.30;99.90
27224;DHT22;14965;50.660;13.226;2023-07-13T01:09:20;16.20;99.90
27224;DHT22;14965;50.660;13.226;2023-07-13T01:11:48;16.20;99.90
27224;DHT22;14965;50.660;13.226;2023-07-13T01:14:14;16.10;99.90
27224;DHT22;14965;50.660;13.226;2023-07-13T01:16:42;16.10;99.90
27224;DHT22;14965;50.660;13.226;2023-07-13T01:19:15;16.20;99.90
27224;DHT22;14965;50.660;13.226;2023-07-13T01:21:52;16.20;99.90
27224;DHT22;14965;50.660;13.226;2023-07-13T01:24:18;16.20;99.90
27224;DHT22;14965;50.660;13.226;2023-07-13T01:26:44;16.20;99.90
27224;DHT22;14965;50.660;13.226;2023-07-13T01:29:10;16.30;99.90
27224;DHT22;14965;50.660;13.226;2023-07-13T01:31:35;16.30;99.90
27224;DHT22;14965;50.660;13.226;2023-07-13T01:34:01;16.30;99.90
27224;DHT22;14965;50.660;13.226;2023-07-13T01:36:27;16.30;99.90
27224;DHT22;14965;50.660;13.226;2023-07-13T01:38:54;16.30;99.90
27224;DHT22;14965;50.660;13.226;2023-07-13T01:41:20;16.30;99.90
27224;DHT22;14965;50.660;13.226;2023-07-13T01:43:46;16.20;99.90
27224;DHT22;14965;50.660;13.226;2023-07-13T01:46:12;16.20;99.90
27224;DHT22;14965;50.660;13.226;2023-07-13T01:48:38;16.20;99.90
27224;DHT22;14965;50.660;13.226;2023-07-13T01:51:03;16.20;99.90
27224;DHT22;14965;50.660;13.226;2023-07-13T01:53:29;16.20;99.90
27224;DHT22;14965;50.660;13.226;2023-07-13T01:55:56;16.20;99.90
27224;DHT22;14965;50.660;13.226;2023-07-13T01:58:22;16.20;99.90
27224;DHT22;14965;50.660;13.226;2023-07-13T02:00:49;16.20;99.90
27224;DHT22;14965;50.660;13.226;2023-07-13T02:03:15;16.20;99.90
27224;DHT22;14965;50.660;13.226;2023-07-13T02:05:41;16.30;99.90
27224;DHT22;14965;50.660;13.226;2023-07-13T02:08:06;16.30;99.90
27224;DHT22;14965;50.660;13.226;2023-07-13T02:10:32;16.30;99.90
27224;DHT22;14965;50.660;13.226;2023-07-13T02:12:59;16.30;99.90
27224;DHT22;14965;50.660;13.226;2023-07-13T02:15:25;16.30;99.90
27224;DHT22;14965;50.660;13.226;2023-07-13T02:17:51;16.20;99.90
27224;DHT22;14965;50.660;13.226;2023-07-13T02:20:17;16.20;99.90
27224;DHT22;14965;50.660;13.226;2023-07-13T02:22:43;16.10;99.90
27224;DHT22;14965;50.660;13.226;2023-07-13T02:25:09;16.10;99.90
27224;DHT22;14965;50.660;13.226;2023-07-13T02:27:35;16.10;99.90
27224;DHT22;14965;50.660;13.226;2023-07-13T02:30:02;16.10;99.90
27224;DHT22;14965;50.660;13.226;2023-07-13T02:32:29;15.80;99.90
27224;DHT22;14965;50.660;13.226;2023-07-13T02:34:54;15.80;99.90
27224;DHT22;14965;50.660;13.226;2023-07-13T02:37:20;15.80;99.90
27224;DHT22;14965;50.660;13.226;2023-07-13T02:39:46;15.80;99.90
27224;DHT22;14965;50.660;13.226;2023-07-13T02:42:12;15.80;99.90
27224;DHT22;14965;50.660;13.226;2023-07-13T02:44:38;15.80;99.90
27224;DHT22;14965;50.660;13.226;2023-07-13T02:47:05;15.80;99.90
27224;DHT22;14965;50.660;13.226;2023-07-13T02:49:32;15.90;99.90
27224;DHT22;14965;50.660;13.226;2023-07-13T02:51:58;16.00;99.90
27224;DHT22;14965;50.660;13.226;2023-07-13T02:54:23;16.00;99.90
27224;DHT22;14965;50.660;13.226;2023-07-13T02:56:49;16.00;99.90
27224;DHT22;14965;50.660;13.226;2023-07-13T02:59:15;16.00;99.90
27224;DHT22;14965;50.660;13.226;2023-07-13T03:01:41;16.00;99.90
27224;DHT22;14965;50.660;13.226;2023-07-13T03:04:08;15.80;99.90
27224;DHT22;14965;50.660;13.226;2023-07-13T03:06:34;15.80;99.90
27224;DHT22;14965;50.660;13.226;2023-07-13T03:09:00;15.80;99.90
27224;DHT22;14965;50.660;13.226;2023-07-13T03:11:26;15.80;99.90
27224;DHT22;14965;50.660;13.226;2023-07-13T03:13:52;15.70;99.90
27224;DHT22;14965;50.660;13.226;2023-07-13T03:16:18;15.60;99.90
27224;DHT22;14965;50.660;13.226;2023-07-13T03:18:46;15.60;99.90
27224;DHT22;14965;50.660;13.226;2023-07-13T03:21:14;15.60;99.90
27224;DHT22;14965;50.660;13.226;2023-07-13T03:23:40;15.60;99.90
27224;DHT22;14965;50.660;13.226;2023-07-13T03:26:09;15.60;99.90
27224;DHT22;14965;50.660;13.226;2023-07-13T03:28:36;15.60;99.90
27224;DHT22;14965;50.660;13.226;2023-07-13T03:31:03;15.70;99.90
27224;DHT22;14965;50.660;13.226;2023-07-13T03:33:32;15.70;99.90
27224;DHT22;14965;50.660;13.226;2023-07-13T03:35:59;15.70;99.90
27224;DHT22;14965;50.660;13.226;2023-07-13T03:38:26;15.70;99.90
27224;DHT22;14965;50.660;13.226;2023-07-13T03:40:52;15.60;99.90
27224;DHT22;14965;50.660;13.226;2023-07-13T03:43:18;15.60;99.90
27224;DHT22;14965;50.660;13.226;2023-07-13T03:45:44;15.70;99.90
27224;DHT22;14965;50.660;13.226;2023-07-13T03:48:10;15.80;99.90
27224;DHT22;14965;50.660;13.226;2023-07-13T03:50:35;15.80;99.90
27224;DHT22;14965;50.660;13.226;2023-07-13T03:53:01;15.80;99.90
27224;DHT22;14965;50.660;13.226;2023-07-13T03:55:28;15.80;99.90
27224;DHT22;14965;50.660;13.226;2023-07-13T03:57:59;15.70;99.90
27224;DHT22;14965;50.660;13.226;2023-07-13T04:00:45;15.70;99.90
27224;DHT22;14965;50.660;13.226;2023-07-13T04:03:11;15.80;99.90
27224;DHT22;14965;50.660;13.226;2023-07-13T04:05:37;15.80;99.90
27224;DHT22;14965;50.660;13.226;2023-07-13T04:08:03;15.80;99.90
27224;DHT22;14965;50.660;13.226;2023-07-13T04:10:31;15.90;99.90
27224;DHT22;14965;50.660;13.226;2023-07-13T04:12:57;16.00;99.90
27224;DHT22;14965;50.660;13.226;2023-07-13T04:15:23;16.10;99.90
27224;DHT22;14965;50.660;13.226;2023-07-13T04:17:49;16.20;99.90
27224;DHT22;14965;50.660;13.226;2023-07-13T04:20:15;16.30;99.90
27224;DHT22;14965;50.660;13.226;2023-07-13T04:22:40;16.30;99.90
27224;DHT22;14965;50.660;13.226;2023-07-13T04:25:07;16.40;99.90
27224;DHT22;14965;50.660;13.226;2023-07-13T04:27:34;16.50;99.90
27224;DHT22;14965;50.660;13.226;2023-07-13T04:30:00;16.60;99.90
27224;DHT22;14965;50.660;13.226;2023-07-13T04:32:26;16.60;99.90
27224;DHT22;14965;50.660;13.226;2023-07-13T04:34:52;16.70;99.90
27224;DHT22;14965;50.660;13.226;2023-07-13T04:37:18;16.80;99.90
27224;DHT22;14965;50.660;13.226;2023-07-13T04:39:44;16.80;99.90
27224;DHT22;14965;50.660;13.226;2023-07-13T04:42:09;16.80;99.90
27224;DHT22;14965;50.660;13.226;2023-07-13T04:44:37;16.90;99.90
27224;DHT22;14965;50.660;13.226;2023-07-13T04:47:03;17.00;99.90
27224;DHT22;14965;50.660;13.226;2023-07-13T04:49:29;17.40;99.90
27224;DHT22;14965;50.660;13.226;2023-07-13T04:51:55;18.00;99.90
27224;DHT22;14965;50.660;13.226;2023-07-13T04:54:21;18.40;99.90
27224;DHT22;14965;50.660;13.226;2023-07-13T04:56:47;18.90;99.90
27224;DHT22;14965;50.660;13.226;2023-07-13T04:59:13;19.50;99.90
27224;DHT22;14965;50.660;13.226;2023-07-13T05:01:40;19.90;99.90
27224;DHT22;14965;50.660;13.226;2023-07-13T05:04:06;20.50;99.90
27224;DHT22;14965;50.660;13.226;2023-07-13T05:06:32;21.40;99.90
27224;DHT22;14965;50.660;13.226;2023-07-13T05:08:58;22.20;99.90
27224;DHT22;14965;50.660;13.226;2023-07-13T05:11:24;22.80;99.90
27224;DHT22;14965;50.660;13.226;2023-07-13T05:13:50;23.60;99.90
27224;DHT22;14965;50.660;13.226;2023-07-13T05:16:16;23.40;99.90
27224;DHT22;14965;50.660;13.226;2023-07-13T05:18:43;23.50;99.90
27224;DHT22;14965;50.660;13.226;2023-07-13T05:21:10;23.70;99.90
27224;DHT22;14965;50.660;13.226;2023-07-13T05:23:37;24.10;99.90
27224;DHT22;14965;50.660;13.226;2023-07-13T05:26:03;24.30;99.90
27224;DHT22;14965;50.660;13.226;2023-07-13T05:28:31;24.30;99.90
27224;DHT22;14965;50.660;13.226;2023-07-13T05:30:57;24.30;99.90
27224;DHT22;14965;50.660;13.226;2023-07-13T05:33:23;24.40;99.90
27224;DHT22;14965;50.660;13.226;2023-07-13T05:35:51;24.40;99.90
27224;DHT22;14965;50.660;13.226;2023-07-13T05:38:17;24.30;99.90
27224;DHT22;14965;50.660;13.226;2023-07-13T05:40:44;24.60;99.90
27224;DHT22;14965;50.660;13.226;2023-07-13T05:43:10;24.70;99.90
27224;DHT22;14965;50.660;13.226;2023-07-13T05:45:36;24.80;99.90
27224;DHT22;14965;50.660;13.226;2023-07-13T05:48:02;24.80;99.90
27224;DHT22;14965;50.660;13.226;2023-07-13T05:50:28;24.80;99.90
27224;DHT22;14965;50.660;13.226;2023-07-13T05:52:55;24.90;99.90
27224;DHT22;14965;50.660;13.226;2023-07-13T05:55:21;24.90;99.90
27224;DHT22;14965;50.660;13.226;2023-07-13T05:57:47;24.80;99.90
27224;DHT22;14965;50.660;13.226;2023-07-13T06:00:14;24.80;99.90
27224;DHT22;14965;50.660;13.226;2023-07-13T06:02:40;25.20;99.90
27224;DHT22;14965;50.660;13.226;2023-07-13T06:05:07;25.40;99.90
27224;DHT22;14965;50.660;13.226;2023-07-13T06:07:33;25.60;99.90
27224;DHT22;14965;50.660;13.226;2023-07-13T06:10:00;25.80;99.90
27224;DHT22;14965;50.660;13.226;2023-07-13T06:12:27;25.90;99.90
27224;DHT22;14965;50.660;13.226;2023-07-13T06:14:53;26.10;99.90
27224;DHT22;14965;50.660;13.226;2023-07-13T06:17:19;26.10;99.90
27224;DHT22;14965;50.660;13.226;2023-07-13T06:19:45;25.90;99.90
27224;DHT22;14965;50.660;13.226;2023-07-13T06:22:11;25.40;99.90
27224;DHT22;14965;50.660;13.226;2023-07-13T06:24:36;25.20;99.90
27224;DHT22;14965;50.660;13.226;2023-07-13T06:27:04;25.00;99.90
27224;DHT22;14965;50.660;13.226;2023-07-13T06:29:31;24.60;99.90
27224;DHT22;14965;50.660;13.226;2023-07-13T06:31:57;24.00;99.90
27224;DHT22;14965;50.660;13.226;2023-07-13T06:34:23;23.50;99.90
27224;DHT22;14965;50.660;13.226;2023-07-13T06:36:48;22.90;99.90
27224;DHT22;14965;50.660;13.226;2023-07-13T06:39:14;22.80;99.90
27224;DHT22;14965;50.660;13.226;2023-07-13T06:41:40;22.80;99.90
27224;DHT22;14965;50.660;13.226;2023-07-13T06:44:07;23.20;99.90
27224;DHT22;14965;50.660;13.226;2023-07-13T06:46:33;23.20;99.90
27224;DHT22;14965;50.660;13.226;2023-07-13T06:48:59;23.20;99.90
27224;DHT22;14965;50.660;13.226;2023-07-13T06:51:25;23.00;99.90
27224;DHT22;14965;50.660;13.226;2023-07-13T06:53:50;22.80;99.90
27224;DHT22;14965;50.660;13.226;2023-07-13T06:56:16;22.80;99.90
27224;DHT22;14965;50.660;13.226;2023-07-13T06:58:42;22.60;99.90
27224;DHT22;14965;50.660;13.226;2023-07-13T07:01:10;22.50;99.90
27224;DHT22;14965;50.660;13.226;2023-07-13T07:03:35;22.20;99.90
27224;DHT22;14965;50.660;13.226;2023-07-13T07:06:03;22.10;99.90
27224;DHT22;14965;50.660;13.226;2023-07-13T07:08:37;22.20;99.90
27224;DHT22;14965;50.660;13.226;2023-07-13T07:11:03;22.40;99.90
27224;DHT22;14965;50.660;13.226;2023-07-13T07:13:29;22.80;99.90
27224;DHT22;14965;50.660;13.226;2023-07-13T07:15:54;23.20;99.90
27224;DHT22;14965;50.660;13.226;2023-07-13T07:18:22;23.20;99.90
27224;DHT22;14965;50.660;13.226;2023-07-13T07:20:49;22.80;99.90
27224;DHT22;14965;50.660;13.226;2023-07-13T07:23:15;22.30;99.90
27224;DHT22;14965;50.660;13.226;2023-07-13T07:25:43;22.30;99.90
27224;DHT22;14965;50.660;13.226;2023-07-13T07:28:09;22.60;99.90
27224;DHT22;14965;50.660;13.226;2023-07-13T07:30:34;23.00;99.90
27224;DHT22;14965;50.660;13.226;2023-07-13T07:33:00;23.20;99.90
27224;DHT22;14965;50.660;13.226;2023-07-13T07:35:27;23.10;99.90
27224;DHT22;14965;50.660;13.226;2023-07-13T07:37:53;22.40;99.90
27224;DHT22;14965;50.660;13.226;2023-07-13T07:40:19;21.90;99.90
27224;DHT22;14965;50.660;13.226;2023-07-13T07:42:45;21.60;99.90
27224;DHT22;14965;50.660;13.226;2023-07-13T07:45:11;21.70;99.90
27224;DHT22;14965;50.660;13.226;2023-07-13T07:47:37;22.10;99.90
27224;DHT22;14965;50.660;13.226;2023-07-13T07:50:03;22.50;99.90
27224;DHT22;14965;50.660;13.226;2023-07-13T07:52:31;22.70;99.90
27224;DHT22;14965;50.660;13.226;2023-07-13T07:54:57;22.70;99.90
27224;DHT22;14965;50.660;13.226;2023-07-13T07:57:29;22.70;99.90
27224;DHT22;14965;50.660;13.226;2023-07-13T07:59:55;22.90;99.90
27224;DHT22;14965;50.660;13.226;2023-07-13T08:02:21;23.10;99.90
27224;DHT22;14965;50.660;13.226;2023-07-13T08:04:47;23.30;99.90
27224;DHT22;14965;50.660;13.226;2023-07-13T08:07:13;23.30;99.90
27224;DHT22;14965;50.660;13.226;2023-07-13T08:09:40;23.40;99.90
27224;DHT22;14965;50.660;13.226;2023-07-13T08:12:06;23.60;99.90
27224;DHT22;14965;50.660;13.226;2023-07-13T08:14:33;23.80;99.90
27224;DHT22;14965;50.660;13.226;2023-07-13T08:16:58;23.80;99.90
27224;DHT22;14965;50.660;13.226;2023-07-13T08:19:24;23.70;99.90
27224;DHT22;14965;50.660;13.226;2023-07-13T08:21:50;23.20;99.90
27224;DHT22;14965;50.660;13.226;2023-07-13T08:24:16;23.00;99.90
27224;DHT22;14965;50.660;13.226;2023-07-13T08:26:43;23.10;99.90
27224;DHT22;14965;50.660;13.226;2023-07-13T08:29:09;23.40;99.90
27224;DHT22;14965;50.660;13.226;2023-07-13T08:31:35;23.70;99.90
27224;DHT22;14965;50.660;13.226;2023-07-13T08:34:01;24.00;99.90
27224;DHT22;14965;50.660;13.226;2023-07-13T08:36:28;24.30;99.90
27224;DHT22;14965;50.660;13.226;2023-07-13T08:38:54;24.40;99.20
27224;DHT22;14965;50.660;13.226;2023-07-13T08:41:21;24.60;99.00
27224;DHT22;14965;50.660;13.226;2023-07-13T08:43:51;24.30;96.70
27224;DHT22;14965;50.660;13.226;2023-07-13T08:46:25;24.10;95.80
27224;DHT22;14965;50.660;13.226;2023-07-13T08:48:56;23.90;98.00
27224;DHT22;14965;50.660;13.226;2023-07-13T08:51:34;24.00;99.90
27224;DHT22;14965;50.660;13.226;2023-07-13T08:54:11;23.80;97.10
27224;DHT22;14965;50.660;13.226;2023-07-13T08:56:44;23.60;98.20
27224;DHT22;14965;50.660;13.226;2023-07-13T08:59:14;23.50;99.90
27224;DHT22;14965;50.660;13.226;2023-07-13T09:02:00;23.60;99.90
27224;DHT22;14965;50.660;13.226;2023-07-13T09:04:39;23.60;98.80
27224;DHT22;14965;50.660;13.226;2023-07-13T09:07:18;23.40;98.90
27224;DHT22;14965;50.660;13.226;2023-07-13T09:10:02;23.20;97.80
27224;DHT22;14965;50.660;13.226;2023-07-13T09:12:51;23.20;98.50
27224;DHT22;14965;50.660;13.226;2023-07-13T09:15:30;23.30;99.60
27224;DHT22;14965;50.660;13.226;2023-07-13T09:18:01;23.30;97.50
27224;DHT22;14965;50.660;13.226;2023-07-13T09:20:36;23.30;99.90
27224;DHT22;14965;50.660;13.226;2023-07-13T09:23:12;23.30;98.80
27224;DHT22;14965;50.660;13.226;2023-07-13T09:25:42;23.20;98.70
27224;DHT22;14965;50.660;13.226;2023-07-13T09:28:17;23.20;99.00
27224;DHT22;14965;50.660;13.226;2023-07-13T09:30:52;23.20;99.40
27224;DHT22;14965;50.660;13.226;2023-07-13T09:33:24;23.40;99.90
27224;DHT22;14965;50.660;13.226;2023-07-13T09:35:50;23.50;99.60
27224;DHT22;14965;50.660;13.226;2023-07-13T09:38:17;23.60;99.30
27224;DHT22;14965;50.660;13.226;2023-07-13T09:40:56;23.60;99.30
27224;DHT22;14965;50.660;13.226;2023-07-13T09:43:30;23.60;97.70
27224;DHT22;14965;50.660;13.226;2023-07-13T09:45:58;23.60;97.40
27224;DHT22;14965;50.660;13.226;2023-07-13T09:48:24;23.50;97.60
27224;DHT22;14965;50.660;13.226;2023-07-13T09:50:54;23.60;97.80
27224;DHT22;14965;50.660;13.226;2023-07-13T09:53:20;24.00;96.20
27224;DHT22;14965;50.660;13.226;2023-07-13T09:55:47;24.30;97.00
27224;DHT22;14965;50.660;13.226;2023-07-13T09:58:16;24.70;95.40
27224;DHT22;14965;50.660;13.226;2023-07-13T10:00:44;24.80;96.90
27224;DHT22;14965;50.660;13.226;2023-07-13T10:03:24;24.20;96.20
27224;DHT22;14965;50.660;13.226;2023-07-13T10:05:52;24.10;96.80
27224;DHT22;14965;50.660;13.226;2023-07-13T10:08:22;24.00;97.50
27224;DHT22;14965;50.660;13.226;2023-07-13T10:10:53;24.20;96.50
27224;DHT22;14965;50.660;13.226;2023-07-13T10:13:27;24.40;95.00
27224;DHT22;14965;50.660;13.226;2023-07-13T10:15:58;24.50;94.80
27224;DHT22;14965;50.660;13.226;2023-07-13T10:18:26;24.70;97.90
27224;DHT22;14965;50.660;13.226;2023-07-13T10:21:00;24.70;94.10
27224;DHT22;14965;50.660;13.226;2023-07-13T10:23:38;24.90;93.90
27224;DHT22;14965;50.660;13.226;2023-07-13T10:26:11;24.50;94.30
27224;DHT22;14965;50.660;13.226;2023-07-13T10:28:44;24.10;97.00
27224;DHT22;14965;50.660;13.226;2023-07-13T10:31:14;23.70;95.60
27224;DHT22;14965;50.660;13.226;2023-07-13T10:33:43;23.80;95.50
27224;DHT22;14965;50.660;13.226;2023-07-13T10:36:17;24.10;96.40
27224;DHT22;14965;50.660;13.226;2023-07-13T10:38:50;24.50;96.40
27224;DHT22;14965;50.660;13.226;2023-07-13T10:41:20;24.80;94.80
27224;DHT22;14965;50.660;13.226;2023-07-13T10:43:51;25.00;94.80
27224;DHT22;14965;50.660;13.226;2023-07-13T10:46:23;24.90;91.10
27224;DHT22;14965;50.660;13.226;2023-07-13T10:48:55;24.60;93.20
27224;DHT22;14965;50.660;13.226;2023-07-13T10:51:25;24.60;93.90
27224;DHT22;14965;50.660;13.226;2023-07-13T10:54:16;24.50;92.40
27224;DHT22;14965;50.660;13.226;2023-07-13T10:56:45;24.80;92.60
27224;DHT22;14965;50.660;13.226;2023-07-13T10:59:14;24.80;94.20
27224;DHT22;14965;50.660;13.226;2023-07-13T11:01:53;25.00;93.50
27224;DHT22;14965;50.660;13.226;2023-07-13T11:04:23;24.90;93.80
27224;DHT22;14965;50.660;13.226;2023-07-13T11:06:53;24.80;91.60
27224;DHT22;14965;50.660;13.226;2023-07-13T11:09:35;24.50;90.80
27224;DHT22;14965;50.660;13.226;2023-07-13T11:12:25;24.20;91.80
27224;DHT22;14965;50.660;13.226;2023-07-13T11:15:06;24.30;92.60
27224;DHT22;14965;50.660;13.226;2023-07-13T11:17:46;24.10;95.70
27224;DHT22;14965;50.660;13.226;2023-07-13T11:20:35;23.90;94.50
27224;DHT22;14965;50.660;13.226;2023-07-13T11:23:16;23.80;94.10
27224;DHT22;14965;50.660;13.226;2023-07-13T11:25:46;23.70;93.60
27224;DHT22;14965;50.660;13.226;2023-07-13T11:28:17;23.60;94.10
27224;DHT22;14965;50.660;13.226;2023-07-13T11:30:50;23.70;96.20
27224;DHT22;14965;50.660;13.226;2023-07-13T11:33:48;24.00;94.30
27224;DHT22;14965;50.660;13.226;2023-07-13T11:36:20;24.10;94.70
27224;DHT22;14965;50.660;13.226;2023-07-13T11:38:55;24.10;92.70
27224;DHT22;14965;50.660;13.226;2023-07-13T11:41:27;24.10;93.80
27224;DHT22;14965;50.660;13.226;2023-07-13T11:44:07;24.20;95.00
27224;DHT22;14965;50.660;13.226;2023-07-13T11:46:37;23.90;95.30
27224;DHT22;14965;50.660;13.226;2023-07-13T11:49:05;23.70;96.70
27224;DHT22;14965;50.660;13.226;2023-07-13T11:51:34;23.80;95.30
27224;DHT22;14965;50.660;13.226;2023-07-13T11:54:05;23.70;95.40
27224;DHT22;14965;50.660;13.226;2023-07-13T11:56:39;23.60;94.90
27224;DHT22;14965;50.660;13.226;2023-07-13T11:59:08;23.60;95.40
27224;DHT22;14965;50.660;13.226;2023-07-13T12:01:44;23.70;94.60
27224;DHT22;14965;50.660;13.226;2023-07-13T12:04:22;23.90;94.60
27224;DHT22;14965;50.660;13.226;2023-07-13T12:07:04;24.00;92.50
27224;DHT22;14965;50.660;13.226;2023-07-13T12:09:33;23.90;94.20
27224;DHT22;14965;50.660;13.226;2023-07-13T12:12:00;24.10;93.30
27224;DHT22;14965;50.660;13.226;2023-07-13T12:14:25;24.30;92.60
27224;DHT22;14965;50.660;13.226;2023-07-13T12:16:52;24.30;91.30
27224;DHT22;14965;50.660;13.226;2023-07-13T12:19:21;24.10;92.50
27224;DHT22;14965;50.660;13.226;2023-07-13T12:21:49;24.20;92.70
27224;DHT22;14965;50.660;13.226;2023-07-13T12:24:19;24.20;91.80
27224;DHT22;14965;50.660;13.226;2023-07-13T12:26:51;24.30;93.30
27224;DHT22;14965;50.660;13.226;2023-07-13T12:29:18;24.30;92.30
27224;DHT22;14965;50.660;13.226;2023-07-13T12:31:46;24.10;93.30
27224;DHT22;14965;50.660;13.226;2023-07-13T12:34:14;23.80;92.80
27224;DHT22;14965;50.660;13.226;2023-07-13T12:36:46;23.70;93.50
27224;DHT22;14965;50.660;13.226;2023-07-13T12:39:19;23.80;92.90
27224;DHT22;14965;50.660;13.226;2023-07-13T12:41:48;23.80;93.10
27224;DHT22;14965;50.660;13.226;2023-07-13T12:44:17;23.90;92.70
27224;DHT22;14965;50.660;13.226;2023-07-13T12:46:53;23.90;93.20
27224;DHT22;14965;50.660;13.226;2023-07-13T12:49:28;23.90;92.60
27224;DHT22;14965;50.660;13.226;2023-07-13T12:51:57;23.80;92.80
27224;DHT22;14965;50.660;13.226;2023-07-13T12:54:27;23.70;91.10
27224;DHT22;14965;50.660;13.226;2023-07-13T12:56:54;23.60;92.60
27224;DHT22;14965;50.660;13.226;2023-07-13T12:59:23;23.80;92.90
27224;DHT22;14965;50.660;13.226;2023-07-13T13:01:54;24.10;90.70
27224;DHT22;14965;50.660;13.226;2023-07-13T13:04:21;24.10;90.50
27224;DHT22;14965;50.660;13.226;2023-07-13T13:06:48;24.20;91.30
27224;DHT22;14965;50.660;13.226;2023-07-13T13:09:16;24.10;90.20
27224;DHT22;14965;50.660;13.226;2023-07-13T13:11:44;23.80;90.60
27224;DHT22;14965;50.660;13.226;2023-07-13T13:14:10;23.40;90.60
27224;DHT22;14965;50.660;13.226;2023-07-13T13:16:43;23.20;91.50
27224;DHT22;14965;50.660;13.226;2023-07-13T13:19:14;23.20;93.00
27224;DHT22;14965;50.660;13.226;2023-07-13T13:21:43;23.40;93.40
27224;DHT22;14965;50.660;13.226;2023-07-13T13:24:14;23.70;92.80
27224;DHT22;14965;50.660;13.226;2023-07-13T13:26:43;23.80;90.40
27224;DHT22;14965;50.660;13.226;2023-07-13T13:29:12;23.80;91.70
27224;DHT22;14965;50.660;13.226;2023-07-13T13:31:39;23.80;93.50
27224;DHT22;14965;50.660;13.226;2023-07-13T13:34:08;24.00;90.70
27224;DHT22;14965;50.660;13.226;2023-07-13T13:36:35;24.10;92.50
27224;DHT22;14965;50.660;13.226;2023-07-13T13:39:02;24.20;90.60
27224;DHT22;14965;50.660;13.226;2023-07-13T13:41:28;24.20;90.80
27224;DHT22;14965;50.660;13.226;2023-07-13T13:43:56;24.30;91.30
27224;DHT22;14965;50.660;13.226;2023-07-13T13:46:24;24.20;91.20
27224;DHT22;14965;50.660;13.226;2023-07-13T13:48:51;24.10;91.20
27224;DHT22;14965;50.660;13.226;2023-07-13T13:51:18;24.10;90.70
27224;DHT22;14965;50.660;13.226;2023-07-13T13:53:46;24.20;91.90
27224;DHT22;14965;50.660;13.226;2023-07-13T13:56:13;24.30;90.80
27224;DHT22;14965;50.660;13.226;2023-07-13T13:58:42;24.30;90.20
27224;DHT22;14965;50.660;13.226;2023-07-13T14:01:16;24.10;91.00
27224;DHT22;14965;50.660;13.226;2023-07-13T14:03:45;23.90;90.50
27224;DHT22;14965;50.660;13.226;2023-07-13T14:06:11;23.80;90.30
27224;DHT22;14965;50.660;13.226;2023-07-13T14:08:38;24.00;91.70
27224;DHT22;14965;50.660;13.226;2023-07-13T14:11:04;24.10;91.90
27224;DHT22;14965;50.660;13.226;2023-07-13T14:13:35;24.10;92.50
27224;DHT22;14965;50.660;13.226;2023-07-13T14:16:08;24.00;90.20
27224;DHT22;14965;50.660;13.226;2023-07-13T14:18:37;24.00;89.40
27224;DHT22;14965;50.660;13.226;2023-07-13T14:21:11;24.00;90.20
27224;DHT22;14965;50.660;13.226;2023-07-13T14:23:38;24.00;90.20
27224;DHT22;14965;50.660;13.226;2023-07-13T14:26:09;23.90;88.00
27224;DHT22;14965;50.660;13.226;2023-07-13T14:28:39;23.80;90.50
27224;DHT22;14965;50.660;13.226;2023-07-13T14:31:08;23.60;89.20
27224;DHT22;14965;50.660;13.226;2023-07-13T14:33:34;23.50;90.90
27224;DHT22;14965;50.660;13.226;2023-07-13T14:36:01;23.60;91.70
27224;DHT22;14965;50.660;13.226;2023-07-13T14:38:27;23.50;89.60
27224;DHT22;14965;50.660;13.226;2023-07-13T14:40:53;23.40;91.70
27224;DHT22;14965;50.660;13.226;2023-07-13T14:43:19;23.40;90.10
27224;DHT22;14965;50.660;13.226;2023-07-13T14:45:48;23.30;91.00
27224;DHT22;14965;50.660;13.226;2023-07-13T14:48:17;23.20;91.40
27224;DHT22;14965;50.660;13.226;2023-07-13T14:50:46;23.20;91.40
27224;DHT22;14965;50.660;13.226;2023-07-13T14:53:14;23.20;91.20
27224;DHT22;14965;50.660;13.226;2023-07-13T14:55:40;23.20;88.50
27224;DHT22;14965;50.660;13.226;2023-07-13T14:58:06;23.30;90.30
27224;DHT22;14965;50.660;13.226;2023-07-13T15:00:32;23.30;90.50
27224;DHT22;14965;50.660;13.226;2023-07-13T15:02:59;23.30;88.10
27224;DHT22;14965;50.660;13.226;2023-07-13T15:05:28;23.30;91.00
27224;DHT22;14965;50.660;13.226;2023-07-13T15:07:58;23.40;88.70
27224;DHT22;14965;50.660;13.226;2023-07-13T15:10:28;23.40;89.90
27224;DHT22;14965;50.660;13.226;2023-07-13T15:12:59;23.50;87.10
27224;DHT22;14965;50.660;13.226;2023-07-13T15:15:27;23.50;90.10
27224;DHT22;14965;50.660;13.226;2023-07-13T15:17:54;23.50;87.10
27224;DHT22;14965;50.660;13.226;2023-07-13T15:20:24;23.40;89.90
27224;DHT22;14965;50.660;13.226;2023-07-13T15:22:51;23.50;88.40